createdAt,value
2023-03-04T00:00:32.216Z,104.40
2023-03-04T00:02:59.738Z,92.82
2023-03-04T00:05:27.314Z,103.20
2023-03-04T00:07:54.808Z,93.88
2023-03-04T00:10:22.342Z,99.35
2023-03-04T00:12:49.770Z,103.90
2023-03-04T00:15:17.505Z,101.72
2023-03-04T00:17:46.294Z,106.47
2023-03-04T00:20:14.280Z,109.70
2023-03-04T00:22:41.738Z,104.22
2023-03-04T00:25:09.479Z,105.88
2023-03-04T00:27:36.908Z,102.75
2023-03-04T00:30:06.897Z,104.60
2023-03-04T00:32:34.424Z,98.00
2023-03-04T00:35:02.022Z,94.78
2023-03-04T00:37:29.567Z,89.80
2023-03-04T00:39:57.047Z,100.32
2023-03-04T00:42:24.658Z,104.13
2023-03-04T00:44:52.259Z,96.97
2023-03-04T00:47:19.755Z,91.22
2023-03-04T00:49:47.250Z,90.57
2023-03-04T00:52:14.907Z,93.88
2023-03-04T00:54:42.429Z,87.53
2023-03-04T00:57:09.935Z,84.82
2023-03-04T00:59:37.633Z,95.90
2023-03-04T01:02:05.213Z,93.45
2023-03-04T01:04:33.043Z,93.07
2023-03-04T01:07:00.613Z,99.45
2023-03-04T01:09:29.569Z,94.00
2023-03-04T01:11:57.517Z,91.55
2023-03-04T01:14:25.062Z,97.50
2023-03-04T01:16:52.569Z,96.03
2023-03-04T01:19:20.095Z,97.95
2023-03-04T01:21:47.637Z,89.80
2023-03-04T01:24:16.431Z,80.32
2023-03-04T01:26:43.901Z,85.82
2023-03-04T01:29:11.424Z,89.65
2023-03-04T01:31:39.006Z,97.30
2023-03-04T01:34:06.565Z,89.28
2023-03-04T01:36:36.481Z,82.55
2023-03-04T01:39:04.879Z,83.50
2023-03-04T01:41:32.871Z,81.13
2023-03-04T01:44:02.599Z,76.05
2023-03-04T01:46:31.632Z,83.63
2023-03-04T01:48:59.522Z,80.05
2023-03-04T01:51:27.226Z,81.47
2023-03-04T01:53:55.133Z,73.80
2023-03-04T01:56:25.490Z,66.60
2023-03-04T01:59:09.604Z,68.85
2023-03-04T02:01:38.839Z,67.25
2023-03-04T02:04:07.835Z,68.70
2023-03-04T02:06:38.352Z,66.88
2023-03-04T02:09:07.162Z,71.85
2023-03-04T02:11:36.059Z,64.30
2023-03-04T02:14:04.748Z,62.60
2023-03-04T02:16:32.787Z,56.65
2023-03-04T02:19:01.318Z,62.55
2023-03-04T02:21:33.539Z,59.30
2023-03-04T02:24:20.269Z,59.42
2023-03-04T02:26:47.880Z,60.47
2023-03-04T02:29:17.554Z,55.45
2023-03-04T02:31:51.844Z,59.08
2023-03-04T02:34:34.248Z,54.17
2023-03-04T02:37:03.320Z,54.83
2023-03-04T02:39:39.861Z,64.35
2023-03-04T02:42:08.225Z,60.30
2023-03-04T02:44:39.628Z,55.42
2023-03-04T02:47:09.731Z,56.15
2023-03-04T02:49:39.363Z,56.55
2023-03-04T02:52:17.914Z,58.42
2023-03-04T02:54:45.527Z,56.22
2023-03-04T02:57:15.011Z,56.00
2023-03-04T02:59:45.573Z,54.50
2023-03-04T03:02:18.054Z,51.95
2023-03-04T03:04:46.275Z,51.83
2023-03-04T03:07:16.468Z,54.63
2023-03-04T03:09:44.431Z,53.72
2023-03-04T03:12:11.961Z,59.65
2023-03-04T03:14:39.585Z,51.30
2023-03-04T03:17:09.320Z,55.67
2023-03-04T03:19:36.859Z,52.47
2023-03-04T03:22:06.768Z,56.28
2023-03-04T03:24:34.611Z,59.22
2023-03-04T03:27:02.099Z,55.60
2023-03-04T03:29:29.667Z,50.50
2023-03-04T03:31:57.310Z,56.50
2023-03-04T03:34:24.934Z,62.78
2023-03-04T03:36:52.482Z,57.55
2023-03-04T03:39:20.204Z,57.97
2023-03-04T03:41:47.790Z,60.80
2023-03-04T03:44:15.254Z,55.92
2023-03-04T03:46:42.719Z,62.60
2023-03-04T03:49:10.225Z,58.97
2023-03-04T03:51:37.629Z,63.60
2023-03-04T03:54:05.118Z,63.40
2023-03-04T03:56:32.589Z,57.40
2023-03-04T03:59:00.135Z,59.78
2023-03-04T04:01:27.669Z,65.07
2023-03-04T04:03:55.196Z,56.83
2023-03-04T04:06:22.750Z,62.92
2023-03-04T04:08:50.341Z,56.70
2023-03-04T04:11:17.997Z,45.47
2023-03-04T04:13:45.507Z,49.83
2023-03-04T04:16:13.099Z,47.13
2023-03-04T04:18:41.111Z,49.38
2023-03-04T04:21:08.521Z,46.88
2023-03-04T04:23:36.197Z,42.92
2023-03-04T04:26:03.927Z,43.90
2023-03-04T04:28:31.532Z,47.53
2023-03-04T04:30:59.063Z,52.25
2023-03-04T04:33:26.988Z,42.13
2023-03-04T04:35:54.566Z,45.50
2023-03-04T04:38:22.136Z,48.45
2023-03-04T04:40:49.578Z,49.45
2023-03-04T04:43:17.096Z,49.72
2023-03-04T04:45:44.662Z,46.42
2023-03-04T04:48:12.286Z,54.72
2023-03-04T04:50:39.733Z,52.25
2023-03-04T04:53:07.244Z,52.95
2023-03-04T04:55:35.104Z,48.92
2023-03-04T04:58:02.671Z,55.58
2023-03-04T05:00:30.075Z,47.90
2023-03-04T05:02:57.680Z,54.33
2023-03-04T05:05:25.148Z,52.00
2023-03-04T05:07:52.692Z,53.58
2023-03-04T05:10:20.457Z,51.13
2023-03-04T05:12:47.992Z,51.28
2023-03-04T05:15:15.877Z,49.00
2023-03-04T05:17:43.522Z,49.47
2023-03-04T05:20:11.756Z,45.40
2023-03-04T05:22:39.402Z,53.50
2023-03-04T05:25:08.000Z,47.17
2023-03-04T05:27:35.563Z,44.95
2023-03-04T05:30:03.067Z,44.70
2023-03-04T05:32:30.698Z,45.70
2023-03-04T05:39:04.696Z,46.20
2023-03-04T05:41:32.182Z,49.00
2023-03-04T05:43:59.716Z,41.35
2023-03-04T05:46:27.458Z,47.70
2023-03-04T05:48:55.505Z,48.95
2023-03-04T05:51:23.646Z,45.35
2023-03-04T05:53:51.415Z,52.08
2023-03-04T05:56:20.257Z,47.60
2023-03-04T05:58:47.775Z,53.40
2023-03-04T06:01:15.854Z,43.80
2023-03-04T06:03:48.721Z,46.55
2023-03-04T06:06:17.277Z,50.75
2023-03-04T06:08:44.695Z,51.03
2023-03-04T06:11:12.187Z,48.30
2023-03-04T06:13:40.367Z,46.97
2023-03-04T06:16:08.383Z,48.20
2023-03-04T06:18:35.846Z,43.08
2023-03-04T06:21:04.035Z,38.80
2023-03-04T06:23:32.767Z,45.15
2023-03-04T06:26:01.866Z,48.03
2023-03-04T06:28:30.566Z,50.22
2023-03-04T06:30:58.110Z,43.47
2023-03-04T06:33:26.499Z,46.95
2023-03-04T06:35:55.860Z,44.83
2023-03-04T06:38:24.316Z,42.08
2023-03-04T06:40:52.105Z,43.67
2023-03-04T06:43:20.187Z,43.72
2023-03-04T06:45:47.877Z,41.22
2023-03-04T06:48:15.394Z,41.75
2023-03-04T06:50:42.963Z,43.65
2023-03-04T06:53:10.398Z,42.05
2023-03-04T06:55:37.898Z,43.65
2023-03-04T06:58:05.594Z,42.83
2023-03-04T07:00:33.211Z,42.22
2023-03-04T07:03:02.014Z,48.80
2023-03-04T07:05:29.577Z,39.92
2023-03-04T07:07:57.066Z,40.42
2023-03-04T07:10:24.514Z,40.03
2023-03-04T07:12:51.992Z,44.47
2023-03-04T07:15:19.536Z,33.60
2023-03-04T07:17:47.033Z,34.08
2023-03-04T07:20:14.645Z,36.78
2023-03-04T07:22:42.088Z,49.30
2023-03-04T07:25:09.867Z,42.85
2023-03-04T07:27:38.809Z,33.78
2023-03-04T07:30:07.358Z,36.50
2023-03-04T07:32:35.899Z,37.22
2023-03-04T07:35:04.586Z,41.05
2023-03-04T07:37:32.014Z,39.40
2023-03-04T07:39:59.532Z,42.78
2023-03-04T07:42:26.999Z,40.15
2023-03-04T07:47:29.435Z,40.55
2023-03-04T07:49:57.114Z,40.65
2023-03-04T07:52:24.692Z,36.42
2023-03-04T07:54:52.227Z,44.13
2023-03-04T07:57:19.820Z,41.90
2023-03-04T07:59:47.279Z,37.15
2023-03-04T08:02:15.888Z,35.65
2023-03-04T08:04:43.405Z,38.95
2023-03-04T08:07:10.927Z,41.60
2023-03-04T08:09:38.440Z,35.85
2023-03-04T08:12:06.612Z,41.38
2023-03-04T08:14:34.356Z,39.63
2023-03-04T08:17:01.992Z,37.25
2023-03-04T08:19:29.702Z,32.65
2023-03-04T08:21:57.266Z,33.40
2023-03-04T08:24:24.741Z,35.70
2023-03-04T08:26:52.224Z,33.35
2023-03-04T08:29:22.288Z,35.92
2023-03-04T08:31:51.035Z,38.67
2023-03-04T08:34:21.340Z,37.90
2023-03-04T08:36:49.049Z,34.42
2023-03-04T08:39:17.959Z,37.53
2023-03-04T08:41:46.713Z,33.17
2023-03-04T08:44:14.714Z,30.52
2023-03-04T08:46:43.673Z,31.05
2023-03-04T08:49:14.787Z,26.67
2023-03-04T08:51:43.019Z,33.15
2023-03-04T08:54:10.539Z,30.15
2023-03-04T08:56:38.237Z,28.05
2023-03-04T08:59:05.723Z,34.67
2023-03-04T09:01:36.371Z,29.27
2023-03-04T09:04:03.965Z,29.42
2023-03-04T09:06:31.488Z,27.38
2023-03-04T09:08:58.972Z,30.90
2023-03-04T09:11:26.476Z,29.58
2023-03-04T09:13:54.196Z,29.52
2023-03-04T09:16:22.004Z,23.98
2023-03-04T09:18:49.677Z,24.17
2023-03-04T09:21:17.257Z,25.52
2023-03-04T09:23:44.773Z,23.92
2023-03-04T09:26:16.938Z,23.33
2023-03-04T09:28:44.526Z,25.58
2023-03-04T09:31:14.307Z,24.65
2023-03-04T09:33:43.283Z,18.80
2023-03-04T09:36:12.841Z,22.20
2023-03-04T09:38:41.375Z,22.52
2023-03-04T09:41:14.089Z,23.60
2023-03-04T09:43:43.297Z,22.13
2023-03-04T09:46:16.124Z,26.48
2023-03-04T09:48:54.846Z,19.07
2023-03-04T09:51:51.265Z,20.35
2023-03-04T09:54:41.279Z,19.85
2023-03-04T09:57:39.237Z,21.92
2023-03-04T10:00:24.491Z,19.77
2023-03-04T10:03:10.318Z,20.33
2023-03-04T10:05:54.692Z,20.25
2023-03-04T10:08:25.202Z,16.17
2023-03-04T10:10:56.939Z,18.65
2023-03-04T10:13:34.193Z,18.60
2023-03-04T10:16:04.625Z,19.25
2023-03-04T10:18:44.055Z,17.00
2023-03-04T10:21:30.853Z,15.90
2023-03-04T10:24:02.106Z,13.70
2023-03-04T10:26:33.535Z,19.15
2023-03-04T10:29:03.294Z,17.20
2023-03-04T10:31:36.898Z,16.88
2023-03-04T10:34:05.534Z,20.25
2023-03-04T10:36:44.348Z,15.80
2023-03-04T10:39:32.119Z,12.93
2023-03-04T10:42:25.064Z,13.70
2023-03-04T10:44:58.417Z,15.60
2023-03-04T10:47:28.675Z,17.77
2023-03-04T10:49:58.816Z,12.98
2023-03-04T10:52:53.342Z,16.25
2023-03-04T10:55:26.160Z,13.55
2023-03-04T10:58:05.432Z,8.32
2023-03-04T11:00:37.855Z,15.20
2023-03-04T11:03:29.669Z,12.68
2023-03-04T11:06:20.465Z,11.02
2023-03-04T11:08:58.839Z,15.15
2023-03-04T11:11:43.068Z,15.07
2023-03-04T11:14:26.144Z,11.23
2023-03-04T11:17:01.610Z,13.82
2023-03-04T11:19:35.849Z,12.80
2023-03-04T11:22:04.037Z,16.30
2023-03-04T11:24:34.969Z,11.63
2023-03-04T11:27:08.801Z,12.40
2023-03-04T11:32:35.537Z,14.65
2023-03-04T11:35:33.342Z,12.55
2023-03-04T11:38:18.727Z,14.85
2023-03-04T11:41:11.513Z,13.48
2023-03-04T11:43:43.089Z,9.73
2023-03-04T11:46:48.257Z,16.77
2023-03-04T11:49:46.423Z,13.70
2023-03-04T11:52:36.608Z,12.13
2023-03-04T11:55:19.057Z,14.82
2023-03-04T11:57:55.582Z,19.83
2023-03-04T12:00:39.782Z,13.43
2023-03-04T12:03:19.576Z,16.38
2023-03-04T12:06:08.434Z,14.43
2023-03-04T12:08:53.683Z,13.25
2023-03-04T12:11:39.644Z,12.45
2023-03-04T12:14:36.304Z,11.23
2023-03-04T12:17:14.003Z,14.27
2023-03-04T12:19:50.559Z,16.23
2023-03-04T12:22:33.812Z,11.32
2023-03-04T12:25:35.330Z,10.82
2023-03-04T12:28:17.004Z,10.98
2023-03-04T12:31:02.803Z,12.13
2023-03-04T12:33:39.633Z,11.32
2023-03-04T12:36:25.896Z,14.35
2023-03-04T12:39:02.445Z,11.25
2023-03-04T12:41:47.907Z,13.52
2023-03-04T12:44:18.275Z,11.98
2023-03-04T12:47:26.405Z,16.20
2023-03-04T12:50:30.214Z,12.85
2023-03-04T12:53:11.844Z,18.47
2023-03-04T12:55:45.554Z,13.55
2023-03-04T13:00:56.571Z,15.77
2023-03-04T13:03:45.693Z,12.82
2023-03-04T13:06:15.872Z,11.50
2023-03-04T13:08:57.050Z,16.80
2023-03-04T13:11:27.662Z,14.63
2023-03-04T13:14:23.781Z,16.65
2023-03-04T13:17:01.980Z,20.80
2023-03-04T13:19:49.422Z,10.43
2023-03-04T13:22:38.200Z,17.05
2023-03-04T13:25:33.495Z,15.73
2023-03-04T13:28:02.893Z,15.90
2023-03-04T13:30:33.584Z,15.05
2023-03-04T13:33:13.754Z,17.80
2023-03-04T13:35:47.511Z,15.32
2023-03-04T13:41:21.750Z,14.20
2023-03-04T13:44:00.153Z,14.23
2023-03-04T13:46:27.761Z,11.55
2023-03-04T13:49:00.741Z,10.70
2023-03-04T13:51:41.667Z,9.07
2023-03-04T13:54:22.064Z,11.38
2023-03-04T13:57:01.532Z,7.93
2023-03-04T13:59:34.764Z,9.70
2023-03-04T14:02:04.110Z,9.48
2023-03-04T14:04:37.583Z,11.25
2023-03-04T14:07:29.418Z,9.13
2023-03-04T14:10:01.364Z,8.52
2023-03-04T14:12:32.081Z,9.35
2023-03-04T14:15:14.690Z,10.25
2023-03-04T14:17:49.635Z,6.47
2023-03-04T14:20:34.189Z,12.70
2023-03-04T14:23:04.279Z,7.82
2023-03-04T14:25:36.561Z,12.82
2023-03-04T14:28:16.827Z,9.90
2023-03-04T14:30:52.652Z,12.48
2023-03-04T14:33:24.450Z,7.78
2023-03-04T14:35:55.424Z,7.97
2023-03-04T14:38:32.292Z,8.35
2023-03-04T14:41:08.919Z,9.90
2023-03-04T14:43:59.003Z,9.45
2023-03-04T14:46:34.315Z,9.40
2023-03-04T14:49:02.739Z,9.07
2023-03-04T14:51:43.027Z,7.32
2023-03-04T14:54:28.817Z,8.80
2023-03-04T14:56:57.418Z,6.55
2023-03-04T14:59:33.227Z,9.57
2023-03-04T15:02:19.555Z,9.90
2023-03-04T15:04:48.376Z,10.50
2023-03-04T15:07:20.164Z,9.25
2023-03-04T15:09:54.144Z,10.68
2023-03-04T15:12:30.758Z,8.18
2023-03-04T15:15:00.868Z,7.20
2023-03-04T15:17:42.765Z,10.65
2023-03-04T15:20:10.194Z,9.30
2023-03-04T15:22:56.901Z,9.73
2023-03-04T15:25:24.527Z,7.45
2023-03-04T15:27:54.063Z,8.55
2023-03-04T15:30:24.953Z,7.18
2023-03-04T15:32:52.475Z,8.50
2023-03-04T15:35:20.885Z,13.25
2023-03-04T15:37:52.419Z,12.60
2023-03-04T15:40:35.721Z,11.70
2023-03-04T15:43:05.881Z,11.27
2023-03-04T15:45:37.037Z,8.63
2023-03-04T15:48:09.800Z,10.05
2023-03-04T15:50:41.617Z,10.65
2023-03-04T15:53:27.361Z,11.50
2023-03-04T15:55:54.954Z,12.50
2023-03-04T15:58:22.580Z,11.05
2023-03-04T16:00:51.903Z,13.15
2023-03-04T16:03:21.486Z,15.02
2023-03-04T16:05:51.129Z,16.95
2023-03-04T16:08:25.189Z,15.38
2023-03-04T16:10:54.308Z,13.77
2023-03-04T16:13:23.971Z,12.88
2023-03-04T16:15:51.874Z,12.13
2023-03-04T16:18:19.754Z,16.25
2023-03-04T16:20:49.600Z,10.35
2023-03-04T16:23:20.854Z,17.15
2023-03-04T16:25:50.833Z,15.77
2023-03-04T16:28:18.665Z,18.80
2023-03-04T16:30:47.401Z,14.95
2023-03-04T16:33:16.381Z,12.63
2023-03-04T16:35:45.257Z,20.90
2023-03-04T16:38:21.415Z,15.35
2023-03-04T16:40:49.771Z,9.73
2023-03-04T16:43:17.417Z,14.25
2023-03-04T16:45:45.160Z,10.90
2023-03-04T16:48:12.593Z,17.85
2023-03-04T16:50:41.066Z,11.73
2023-03-04T16:53:29.230Z,13.88
2023-03-04T16:55:58.831Z,11.98
2023-03-04T16:58:26.379Z,14.13
2023-03-04T17:00:55.213Z,15.57
2023-03-04T17:03:22.645Z,16.23
2023-03-04T17:05:50.139Z,11.63
2023-03-04T17:08:17.721Z,15.60
2023-03-04T17:10:45.226Z,11.25
2023-03-04T17:13:12.922Z,15.07
2023-03-04T17:15:42.993Z,15.07
2023-03-04T17:18:10.483Z,13.80
2023-03-04T17:20:37.950Z,18.60
2023-03-04T17:23:05.745Z,9.48
2023-03-04T17:25:33.456Z,10.27
2023-03-04T17:28:01.098Z,10.95
2023-03-04T17:30:28.829Z,14.93
2023-03-04T17:32:56.316Z,10.20
2023-03-04T17:35:25.761Z,11.45
2023-03-04T17:37:53.413Z,11.77
2023-03-04T17:40:21.060Z,12.07
2023-03-04T17:42:48.529Z,10.50
2023-03-04T17:45:16.010Z,10.35
2023-03-04T17:47:43.611Z,7.82
2023-03-04T17:50:11.686Z,8.25
2023-03-04T17:52:39.289Z,11.98
2023-03-04T17:55:07.207Z,13.00
2023-03-04T17:57:38.480Z,15.25
2023-03-04T18:00:06.972Z,10.27
2023-03-04T18:02:34.435Z,9.30
2023-03-04T18:05:07.163Z,13.38
2023-03-04T18:07:34.682Z,9.45
2023-03-04T18:10:02.303Z,6.60
2023-03-04T18:12:30.081Z,11.05
2023-03-04T18:14:57.485Z,7.15
2023-03-04T18:17:25.130Z,9.57
2023-03-04T18:19:52.663Z,12.23
2023-03-04T18:22:20.162Z,13.07
2023-03-04T18:24:47.675Z,8.43
2023-03-04T18:27:15.282Z,8.82
2023-03-04T18:29:42.757Z,13.30
2023-03-04T18:32:10.340Z,9.88
2023-03-04T18:34:37.880Z,11.85
2023-03-04T18:37:05.393Z,10.73
2023-03-04T18:39:32.857Z,9.50
2023-03-04T18:42:01.000Z,13.75
2023-03-04T18:44:28.438Z,8.63
2023-03-04T18:46:57.864Z,11.70
2023-03-04T18:49:25.646Z,11.40
2023-03-04T18:51:53.673Z,17.48
2023-03-04T18:54:21.183Z,14.20
2023-03-04T18:56:55.763Z,13.85
2023-03-04T18:59:31.449Z,12.10
2023-03-04T19:02:02.584Z,12.00
2023-03-04T19:04:30.564Z,11.38
2023-03-04T19:06:59.155Z,10.88
2023-03-04T19:09:27.426Z,13.30
2023-03-04T19:11:54.857Z,13.65
2023-03-04T19:14:22.386Z,12.70
2023-03-04T19:16:49.902Z,13.52
2023-03-04T19:19:17.776Z,12.35
2023-03-04T19:21:45.276Z,12.93
2023-03-04T19:24:12.876Z,11.63
2023-03-04T19:26:40.400Z,10.45
2023-03-04T19:29:08.037Z,13.90
2023-03-04T19:31:41.021Z,11.10
2023-03-04T19:34:09.520Z,13.65
2023-03-04T19:36:37.245Z,14.40
2023-03-04T19:39:05.726Z,14.60
2023-03-04T19:41:33.133Z,15.90
2023-03-04T19:44:00.845Z,13.07
2023-03-04T19:46:28.554Z,13.65
2023-03-04T19:48:56.013Z,13.13
2023-03-04T19:51:26.328Z,19.20
2023-03-04T19:53:54.744Z,12.43
2023-03-04T19:56:22.868Z,13.10
2023-03-04T19:58:53.837Z,12.27
2023-03-04T20:01:41.750Z,13.50
2023-03-04T20:04:12.007Z,20.63
2023-03-04T20:06:42.324Z,14.27
2023-03-04T20:09:10.697Z,15.85
2023-03-04T20:11:47.398Z,14.40
2023-03-04T20:14:22.424Z,16.90
2023-03-04T20:16:49.883Z,11.07
2023-03-04T20:19:17.418Z,17.58
2023-03-04T20:21:44.876Z,17.40
2023-03-04T20:24:13.172Z,13.60
2023-03-04T20:26:40.776Z,10.82
2023-03-04T20:29:08.331Z,25.83
2023-03-04T20:31:39.387Z,21.77
2023-03-04T20:34:08.032Z,18.00
2023-03-04T20:36:36.110Z,12.30
2023-03-04T20:39:10.270Z,19.88
2023-03-04T20:41:45.810Z,24.42
2023-03-04T20:44:13.334Z,23.73
2023-03-04T20:46:45.174Z,23.00
2023-03-04T20:49:16.299Z,20.40
2023-03-04T20:51:43.841Z,21.23
2023-03-04T20:54:11.760Z,17.00
2023-03-04T20:56:39.782Z,21.55
2023-03-04T20:59:08.925Z,21.17
2023-03-04T21:01:39.112Z,12.02
2023-03-04T21:04:07.168Z,21.73
2023-03-04T21:06:34.686Z,21.42
2023-03-04T21:09:08.282Z,21.45
2023-03-04T21:11:40.536Z,24.50
2023-03-04T21:14:14.624Z,17.92
2023-03-04T21:16:43.094Z,19.52
2023-03-04T21:19:17.028Z,18.52
2023-03-04T21:21:45.722Z,16.02
2023-03-04T21:24:20.032Z,19.13
2023-03-04T21:26:48.153Z,21.17
2023-03-04T21:29:18.030Z,25.58
2023-03-04T21:31:50.645Z,22.45
2023-03-04T21:34:24.833Z,21.98
2023-03-04T21:36:52.577Z,21.70
2023-03-04T21:39:22.978Z,20.20
2023-03-04T21:41:51.146Z,18.48
2023-03-04T21:44:28.122Z,20.80
2023-03-04T21:46:58.018Z,20.92
2023-03-04T21:49:26.573Z,22.33
2023-03-04T21:51:54.027Z,18.75
2023-03-04T21:54:21.772Z,17.30
2023-03-04T21:56:50.465Z,23.13
2023-03-04T21:59:18.062Z,16.40
2023-03-04T22:01:46.077Z,19.67
2023-03-04T22:04:13.690Z,17.70
2023-03-04T22:06:41.547Z,22.90
2023-03-04T22:09:09.763Z,16.30
2023-03-04T22:11:37.326Z,19.15
2023-03-04T22:14:05.632Z,19.02
2023-03-04T22:16:37.544Z,20.27
2023-03-04T22:19:07.810Z,19.08
2023-03-04T22:21:35.226Z,21.50
2023-03-04T22:24:02.668Z,23.63
2023-03-04T22:26:31.985Z,15.32
2023-03-04T22:29:01.372Z,18.75
2023-03-04T22:31:34.262Z,22.30
2023-03-04T22:34:10.505Z,23.55
2023-03-04T22:36:40.284Z,21.15
2023-03-04T22:39:10.501Z,22.98
2023-03-04T22:41:38.372Z,16.85
2023-03-04T22:44:07.233Z,19.17
2023-03-04T22:46:36.671Z,12.73
2023-03-04T22:49:06.937Z,23.50
2023-03-04T22:51:34.437Z,18.08
2023-03-04T22:54:01.870Z,17.33
2023-03-04T22:56:29.421Z,14.30
2023-03-04T22:58:56.908Z,26.20
2023-03-04T23:01:24.806Z,15.00
2023-03-04T23:03:53.150Z,24.73
2023-03-04T23:06:30.365Z,15.27
2023-03-04T23:08:59.004Z,15.73
2023-03-04T23:11:30.415Z,13.68
2023-03-04T23:13:58.090Z,18.15
2023-03-04T23:16:27.946Z,21.40
2023-03-04T23:18:57.118Z,16.02
2023-03-04T23:21:28.252Z,14.05
2023-03-04T23:23:56.719Z,12.55
2023-03-04T23:26:27.660Z,16.80
2023-03-04T23:28:57.261Z,20.25
2023-03-04T23:31:25.904Z,16.05
2023-03-04T23:33:57.555Z,13.07
2023-03-04T23:36:28.311Z,15.10
2023-03-04T23:38:56.606Z,18.10
2023-03-04T23:41:27.885Z,15.88
2023-03-04T23:43:57.021Z,13.68
2023-03-04T23:46:25.672Z,17.65
2023-03-04T23:48:53.979Z,10.30
2023-03-04T23:51:25.383Z,13.82
2023-03-04T23:53:52.918Z,19.25
2023-03-04T23:56:23.406Z,17.70
2023-03-04T23:58:51.493Z,11.32
